createdAt,value
2018-04-13T00:00:03.071Z,7.10
2018-04-13T00:02:30.533Z,7.10
2018-04-13T00:04:58.011Z,7.10
2018-04-13T00:07:26.256Z,6.90
2018-04-13T00:09:53.724Z,6.90
2018-04-13T00:12:21.208Z,6.90
2018-04-13T00:14:49.447Z,6.80
2018-04-13T00:17:16.945Z,6.70
2018-04-13T00:19:45.182Z,6.60
2018-04-13T00:22:12.685Z,6.50
2018-04-13T00:24:40.158Z,6.60
2018-04-13T00:27:07.620Z,6.60
2018-04-13T00:29:35.101Z,6.60
2018-04-13T00:32:02.564Z,6.60
2018-04-13T00:34:30.052Z,6.50
2018-04-13T00:36:58.286Z,6.60
2018-04-13T00:39:25.764Z,6.60
2018-04-13T00:41:53.232Z,6.60
2018-04-13T00:44:21.484Z,6.50
2018-04-13T00:46:48.961Z,6.50
2018-04-13T00:49:17.200Z,6.40
2018-04-13T00:51:44.682Z,6.40
2018-04-13T00:54:12.165Z,6.50
2018-04-13T00:56:39.648Z,6.50
2018-04-13T00:59:07.191Z,6.40
2018-04-13T01:01:34.673Z,6.40
2018-04-13T01:04:02.140Z,6.30
2018-04-13T01:06:29.609Z,6.30
2018-04-13T01:08:57.093Z,6.20
2018-04-13T01:11:25.325Z,6.20
2018-04-13T01:13:52.827Z,6.20
2018-04-13T01:16:21.060Z,6.30
2018-04-13T01:18:48.581Z,6.30
2018-04-13T01:21:16.049Z,6.30
2018-04-13T01:23:43.532Z,6.20
2018-04-13T01:26:11.012Z,6.30
2018-04-13T01:28:39.240Z,6.20
2018-04-13T01:31:06.732Z,6.20
2018-04-13T01:33:34.208Z,6.30
2018-04-13T01:36:02.449Z,6.40
2018-04-13T01:38:29.917Z,6.40
2018-04-13T01:40:57.388Z,6.40
2018-04-13T01:43:25.617Z,6.60
2018-04-13T01:45:53.132Z,6.60
2018-04-13T01:48:21.361Z,6.70
2018-04-13T01:50:48.819Z,6.70
2018-04-13T01:53:16.292Z,6.70
2018-04-13T01:55:43.755Z,6.70
2018-04-13T01:58:11.229Z,6.60
2018-04-13T02:00:39.456Z,6.50
2018-04-13T02:03:06.920Z,6.50
2018-04-13T02:05:34.400Z,6.40
2018-04-13T02:08:02.629Z,6.20
2018-04-13T02:10:30.127Z,6.20
2018-04-13T02:12:57.612Z,6.10
2018-04-13T02:15:25.073Z,6.00
2018-04-13T02:17:52.557Z,5.90
2018-04-13T02:20:20.017Z,5.90
2018-04-13T02:22:47.506Z,5.90
2018-04-13T02:25:14.965Z,6.00
2018-04-13T02:27:42.569Z,5.80
2018-04-13T02:30:10.049Z,5.70
2018-04-13T02:32:37.581Z,5.90
2018-04-13T02:35:05.088Z,5.90
2018-04-13T02:37:32.817Z,5.70
2018-04-13T02:40:00.274Z,5.70
2018-04-13T02:42:27.809Z,5.60
2018-04-13T02:44:55.277Z,5.70
2018-04-13T02:47:22.781Z,5.80
2018-04-13T02:49:50.245Z,6.00
2018-04-13T02:52:17.716Z,6.10
2018-04-13T02:54:45.956Z,6.10
2018-04-13T02:57:13.420Z,6.10
2018-04-13T02:59:40.896Z,6.10
2018-04-13T03:02:09.128Z,6.10
2018-04-13T03:04:36.589Z,6.00
2018-04-13T03:07:04.071Z,6.00
2018-04-13T03:09:32.309Z,5.70
2018-04-13T03:11:59.796Z,5.70
2018-04-13T03:14:27.261Z,5.50
2018-04-13T03:16:55.488Z,5.40
2018-04-13T03:19:22.964Z,5.40
2018-04-13T03:21:50.425Z,5.50
2018-04-13T03:24:17.923Z,5.60
2018-04-13T03:26:45.386Z,5.50
2018-04-13T03:29:12.849Z,5.50
2018-04-13T03:31:40.326Z,5.40
2018-04-13T03:34:07.800Z,5.40
2018-04-13T03:36:35.297Z,5.50
2018-04-13T03:39:02.785Z,5.60
2018-04-13T03:41:30.253Z,5.80
2018-04-13T03:43:57.783Z,5.00
2018-04-13T03:46:25.259Z,6.00
2018-04-13T03:48:52.768Z,6.20
2018-04-13T03:51:20.992Z,6.40
2018-04-13T03:53:48.468Z,6.30
2018-04-13T03:56:15.948Z,6.40
2018-04-13T03:58:43.412Z,6.40
2018-04-13T04:01:11.652Z,6.50
2018-04-13T04:03:39.117Z,6.50
2018-04-13T04:06:06.576Z,6.50
2018-04-13T04:08:34.056Z,6.50
2018-04-13T04:11:02.306Z,6.30
2018-04-13T04:13:29.803Z,6.30
2018-04-13T04:15:57.270Z,6.20
2018-04-13T04:18:24.729Z,6.10
2018-04-13T04:21:04.189Z,6.10
2018-04-13T04:23:43.556Z,6.10
2018-04-13T04:26:27.849Z,6.10
2018-04-13T04:28:55.314Z,6.10
2018-04-13T04:31:22.804Z,6.10
2018-04-13T04:33:50.265Z,6.10
2018-04-13T04:36:17.754Z,6.20
2018-04-13T04:38:46.192Z,6.20
2018-04-13T04:41:13.676Z,6.20
2018-04-13T04:43:41.438Z,6.30
2018-04-13T04:46:09.672Z,6.30
2018-04-13T04:48:37.128Z,6.30
2018-04-13T04:51:04.608Z,6.30
2018-04-13T04:53:32.126Z,6.20
2018-04-13T04:55:59.616Z,6.30
2018-04-13T04:58:27.089Z,6.40
2018-04-13T05:00:54.544Z,6.60
2018-04-13T05:03:22.025Z,6.70
2018-04-13T05:05:50.252Z,6.70
2018-04-13T05:08:17.781Z,6.70
2018-04-13T05:10:45.241Z,6.70
2018-04-13T05:13:13.081Z,6.70
2018-04-13T05:15:40.569Z,6.70
2018-04-13T05:18:08.032Z,6.70
2018-04-13T05:20:35.513Z,6.90
2018-04-13T05:23:02.977Z,6.90
2018-04-13T05:25:30.436Z,6.90
2018-04-13T05:27:57.931Z,7.00
2018-04-13T05:30:25.393Z,7.10
2018-04-13T05:32:52.900Z,7.20
2018-04-13T05:35:20.398Z,7.40
2018-04-13T05:37:48.601Z,7.70
2018-04-13T05:40:16.077Z,7.70
2018-04-13T05:42:43.541Z,7.90
2018-04-13T05:45:11.030Z,8.00
2018-04-13T05:47:38.499Z,8.20
2018-04-13T05:50:05.962Z,8.40
2018-04-13T05:52:33.444Z,8.50
2018-04-13T05:55:00.900Z,8.50
2018-04-13T05:57:28.398Z,8.60
2018-04-13T05:59:56.620Z,8.70
2018-04-13T06:02:24.089Z,8.70
2018-04-13T06:04:51.572Z,8.90
2018-04-13T06:07:19.809Z,9.10
2018-04-13T06:09:47.285Z,9.10
2018-04-13T06:12:14.747Z,9.30
2018-04-13T06:14:42.224Z,9.40
2018-04-13T06:17:10.450Z,9.60
2018-04-13T06:19:37.979Z,9.60
2018-04-13T06:22:05.462Z,9.80
2018-04-13T06:24:32.929Z,10.00
2018-04-13T06:27:00.421Z,10.10
2018-04-13T06:29:28.676Z,10.40
2018-04-13T06:31:56.168Z,10.40
2018-04-13T06:34:23.641Z,10.60
2018-04-13T06:36:55.043Z,10.60
2018-04-13T06:39:18.620Z,10.70
2018-04-13T06:41:46.856Z,10.90
2018-04-13T06:44:14.332Z,10.90
2018-04-13T06:46:41.799Z,11.00
2018-04-13T06:49:10.069Z,11.30
2018-04-13T06:51:37.532Z,11.30
2018-04-13T06:54:05.761Z,11.50
2018-04-13T06:56:33.253Z,11.50
2018-04-13T06:59:00.721Z,11.70
2018-04-13T07:01:28.972Z,12.00
2018-04-13T07:03:56.433Z,12.00
2018-04-13T07:06:23.944Z,12.20
2018-04-13T07:08:51.412Z,12.40
2018-04-13T07:11:18.901Z,12.40
2018-04-13T07:13:46.381Z,12.40
2018-04-13T07:16:14.609Z,12.60
2018-04-13T07:18:42.092Z,12.60
2018-04-13T07:21:09.557Z,12.70
2018-04-13T07:23:37.808Z,13.00
2018-04-13T07:26:05.269Z,13.00
2018-04-13T07:28:32.736Z,13.10
2018-04-13T07:31:00.219Z,13.20
2018-04-13T07:33:27.688Z,13.40
2018-04-13T07:35:55.238Z,13.50
2018-04-13T07:38:22.644Z,13.60
2018-04-13T07:40:50.179Z,13.70
2018-04-13T07:43:17.605Z,13.80
2018-04-13T07:45:45.345Z,14.00
2018-04-13T07:48:12.560Z,14.20
2018-04-13T07:50:40.081Z,14.50
2018-04-13T07:53:07.570Z,15.30
2018-04-13T07:55:35.032Z,15.30
2018-04-13T07:58:02.967Z,15.60
2018-04-13T08:00:30.002Z,15.50
2018-04-13T08:02:57.905Z,16.20
2018-04-13T08:05:24.984Z,16.30
2018-04-13T08:07:53.220Z,16.60
2018-04-13T08:10:20.706Z,16.60
2018-04-13T08:12:48.945Z,16.70
2018-04-13T08:15:16.432Z,16.70
2018-04-13T08:17:43.908Z,16.20
2018-04-13T08:20:11.380Z,16.10
2018-04-13T08:22:38.861Z,16.30
2018-04-13T08:25:06.325Z,16.10
2018-04-13T08:27:33.864Z,16.20
2018-04-13T08:30:01.332Z,16.20
2018-04-13T08:32:29.161Z,15.90
2018-04-13T08:34:57.397Z,16.10
2018-04-13T08:37:24.874Z,16.10
2018-04-13T08:39:53.125Z,15.70
2018-04-13T08:42:20.592Z,15.70
2018-04-13T08:44:48.076Z,15.90
2018-04-13T08:47:16.312Z,16.10
2018-04-13T08:49:43.808Z,16.10
2018-04-13T08:52:12.040Z,16.30
2018-04-13T08:54:39.550Z,16.30
2018-04-13T08:57:07.012Z,16.60
2018-04-13T08:59:34.505Z,16.50
2018-04-13T09:02:01.994Z,16.60
2018-04-13T09:04:30.231Z,16.40
2018-04-13T09:06:57.728Z,16.30
2018-04-13T09:09:25.965Z,15.50
2018-04-13T09:11:53.430Z,15.50
2018-04-13T09:14:20.931Z,15.50
2018-04-13T09:16:49.173Z,15.30
2018-04-13T09:19:16.656Z,15.30
2018-04-13T09:21:44.884Z,15.40
2018-04-13T09:24:12.364Z,15.40
2018-04-13T09:26:39.829Z,15.40
2018-04-13T09:29:08.076Z,15.40
2018-04-13T09:31:35.548Z,15.40
2018-04-13T09:34:03.026Z,15.40
2018-04-13T09:36:31.272Z,15.50
2018-04-13T09:38:58.780Z,15.50
2018-04-13T09:41:26.261Z,15.30
2018-04-13T09:43:53.794Z,15.20
2018-04-13T09:46:21.280Z,15.10
2018-04-13T09:48:48.754Z,15.40
2018-04-13T09:51:16.216Z,15.30
2018-04-13T09:53:43.708Z,15.10
2018-04-13T09:56:11.192Z,15.30
2018-04-13T09:58:38.672Z,15.30
2018-04-13T10:01:06.141Z,15.40
2018-04-13T10:03:39.308Z,15.60
2018-04-13T10:06:06.772Z,15.60
2018-04-13T10:08:34.253Z,15.50
2018-04-13T10:11:01.736Z,15.60
2018-04-13T10:13:29.208Z,15.70
2018-04-13T10:15:56.694Z,15.90
2018-04-13T10:18:24.157Z,16.30
2018-04-13T10:20:51.665Z,16.30
2018-04-13T10:23:19.129Z,16.40
2018-04-13T10:25:46.608Z,16.40
2018-04-13T10:28:14.069Z,16.30
2018-04-13T10:30:41.564Z,16.20
2018-04-13T10:33:09.797Z,16.30
2018-04-13T10:35:37.280Z,16.30
2018-04-13T10:38:04.748Z,16.40
2018-04-13T10:40:33.360Z,16.30
2018-04-13T10:43:00.829Z,16.30
2018-04-13T10:45:28.292Z,16.30
2018-04-13T10:47:55.777Z,15.80
2018-04-13T10:50:23.237Z,15.90
2018-04-13T10:52:50.717Z,15.80
2018-04-13T10:55:18.947Z,15.90
2018-04-13T10:57:46.489Z,15.90
2018-04-13T11:00:13.986Z,15.90
2018-04-13T11:02:41.444Z,16.10
2018-04-13T11:05:09.696Z,16.20
2018-04-13T11:07:37.164Z,16.20
2018-04-13T11:10:04.726Z,16.00
2018-04-13T11:12:32.201Z,16.20
2018-04-13T11:15:00.448Z,16.20
2018-04-13T11:17:27.912Z,16.10
2018-04-13T11:19:55.381Z,16.10
2018-04-13T11:22:23.644Z,16.10
2018-04-13T11:24:51.127Z,16.10
2018-04-13T11:27:19.369Z,16.50
2018-04-13T11:29:46.834Z,16.50
2018-04-13T11:32:14.325Z,16.50
2018-04-13T11:34:41.886Z,16.60
2018-04-13T11:37:09.364Z,16.40
2018-04-13T11:39:36.824Z,16.40
2018-04-13T11:42:04.309Z,16.50
2018-04-13T11:44:31.777Z,16.40
2018-04-13T11:47:00.027Z,16.70
2018-04-13T11:49:27.498Z,16.70
2018-04-13T11:51:54.981Z,16.70
2018-04-13T11:54:22.444Z,16.60
2018-04-13T11:56:49.909Z,16.10
2018-04-13T11:59:17.390Z,16.20
2018-04-13T12:01:44.870Z,16.00
2018-04-13T12:04:12.353Z,16.20
2018-04-13T12:06:40.582Z,16.20
2018-04-13T12:09:08.060Z,16.10
2018-04-13T12:11:35.525Z,16.30
2018-04-13T12:14:03.772Z,16.00
2018-04-13T12:16:31.237Z,16.00
2018-04-13T12:18:58.716Z,16.20
2018-04-13T12:21:26.945Z,16.30
2018-04-13T12:23:54.444Z,16.30
2018-04-13T12:26:22.672Z,16.00
2018-04-13T12:28:50.137Z,16.00
2018-04-13T12:31:17.651Z,16.20
2018-04-13T12:33:45.861Z,16.20
2018-04-13T12:36:13.396Z,16.20
2018-04-13T12:38:40.860Z,16.10
2018-04-13T12:41:08.348Z,16.50
2018-04-13T12:43:35.809Z,16.60
2018-04-13T12:46:03.295Z,16.60
2018-04-13T12:48:31.524Z,16.40
2018-04-13T12:50:58.993Z,16.40
2018-04-13T12:53:26.478Z,16.30
2018-04-13T12:55:54.008Z,16.30
2018-04-13T12:58:21.462Z,16.40
2018-04-13T13:00:48.925Z,16.40
2018-04-13T13:03:16.408Z,16.50
2018-04-13T13:05:44.637Z,16.60
2018-04-13T13:08:12.129Z,16.50
2018-04-13T13:10:40.389Z,17.10
2018-04-13T13:13:07.860Z,17.10
2018-04-13T13:15:36.130Z,16.90
2018-04-13T13:18:03.592Z,16.90
2018-04-13T13:20:31.851Z,17.60
2018-04-13T13:22:59.325Z,17.60
2018-04-13T13:25:27.556Z,18.10
2018-04-13T13:27:55.037Z,18.00
2018-04-13T13:30:22.501Z,18.10
2018-04-13T13:32:50.749Z,18.50
2018-04-13T13:35:18.209Z,18.50
2018-04-13T13:37:45.692Z,18.00
2018-04-13T13:40:13.925Z,17.80
2018-04-13T13:42:41.725Z,17.80
2018-04-13T13:45:09.218Z,17.80
2018-04-13T13:47:36.695Z,17.70
2018-04-13T13:50:04.233Z,17.40
2018-04-13T13:52:31.705Z,17.40
2018-04-13T13:54:59.205Z,17.00
2018-04-13T13:57:26.670Z,17.10
2018-04-13T13:59:54.912Z,17.00
2018-04-13T14:02:22.401Z,16.90
2018-04-13T14:04:50.745Z,16.80
2018-04-13T14:07:18.476Z,16.70
2018-04-13T14:09:46.635Z,16.90
2018-04-13T14:12:14.870Z,17.00
2018-04-13T14:14:42.397Z,17.10
2018-04-13T14:17:10.601Z,17.20
2018-04-13T14:19:38.085Z,17.20
2018-04-13T14:22:06.318Z,17.80
2018-04-13T14:24:33.803Z,17.70
2018-04-13T14:27:01.270Z,17.80
2018-04-13T14:29:28.733Z,17.70
2018-04-13T14:31:56.976Z,17.90
2018-04-13T14:34:24.448Z,17.90
2018-04-13T14:36:51.942Z,18.00
2018-04-13T14:39:19.407Z,18.50
2018-04-13T14:41:46.897Z,18.60
2018-04-13T14:44:14.445Z,18.30
2018-04-13T14:46:41.933Z,18.30
2018-04-13T14:49:09.432Z,18.50
2018-04-13T14:51:37.186Z,18.30
2018-04-13T14:54:04.677Z,17.90
2018-04-13T14:56:32.156Z,17.60
2018-04-13T14:58:59.954Z,17.60
2018-04-13T15:01:27.427Z,17.70
2018-04-13T15:03:54.921Z,17.80
2018-04-13T15:06:22.444Z,17.80
2018-04-13T15:08:50.653Z,17.70
2018-04-13T15:11:18.900Z,17.30
2018-04-13T15:13:46.430Z,17.30
2018-04-13T15:16:13.881Z,17.30
2018-04-13T15:18:42.114Z,17.50
2018-04-13T15:21:09.632Z,17.50
2018-04-13T15:23:37.104Z,17.60
2018-04-13T15:26:04.586Z,17.40
2018-04-13T15:28:32.052Z,17.20
2018-04-13T15:30:59.517Z,17.20
2018-04-13T15:33:27.790Z,17.10
2018-04-13T15:35:55.272Z,17.10
2018-04-13T15:38:22.755Z,17.20
2018-04-13T15:40:50.226Z,17.30
2018-04-13T15:43:17.737Z,17.30
2018-04-13T15:45:45.968Z,17.10
2018-04-13T15:48:13.441Z,17.10
2018-04-13T15:50:40.921Z,16.90
2018-04-13T15:53:09.155Z,16.80
2018-04-13T15:55:36.633Z,16.80
2018-04-13T15:58:04.100Z,16.80
2018-04-13T16:00:32.352Z,16.80
2018-04-13T16:02:59.816Z,16.80
2018-04-13T16:05:28.109Z,17.00
2018-04-13T16:07:56.338Z,17.00
2018-04-13T16:10:23.817Z,17.00
2018-04-13T16:12:51.305Z,16.70
2018-04-13T16:15:18.775Z,16.60
2018-04-13T16:17:46.265Z,16.50
2018-04-13T16:20:13.728Z,16.40
2018-04-13T16:22:41.214Z,16.30
2018-04-13T16:25:09.445Z,16.00
2018-04-13T16:27:36.935Z,16.00
2018-04-13T16:30:04.420Z,15.90
2018-04-13T16:32:31.929Z,15.90
2018-04-13T16:34:59.416Z,15.90
2018-04-13T16:37:27.682Z,15.50
2018-04-13T16:39:55.165Z,15.50
2018-04-13T16:42:22.660Z,15.40
2018-04-13T16:44:50.133Z,15.50
2018-04-13T16:47:17.617Z,15.50
2018-04-13T16:49:45.084Z,15.50
2018-04-13T16:52:12.618Z,15.50
2018-04-13T16:54:40.121Z,15.50
2018-04-13T16:57:07.670Z,15.50
2018-04-13T16:59:35.146Z,15.50
2018-04-13T17:02:03.012Z,15.50
2018-04-13T17:04:30.510Z,15.40
2018-04-13T17:06:58.754Z,15.20
2018-04-13T17:09:26.254Z,15.20
2018-04-13T17:11:54.497Z,15.00
2018-04-13T17:14:21.984Z,15.00
2018-04-13T17:16:50.236Z,15.00
2018-04-13T17:19:17.757Z,15.00
2018-04-13T17:21:45.295Z,15.00
2018-04-13T17:24:12.783Z,14.90
2018-04-13T17:26:41.230Z,14.80
2018-04-13T17:29:08.791Z,14.80
2018-04-13T17:31:36.220Z,14.80
2018-04-13T17:34:03.693Z,14.70
2018-04-13T17:36:31.189Z,14.60
2018-04-13T17:38:58.676Z,14.60
2018-04-13T17:41:26.937Z,14.40
2018-04-13T17:43:54.444Z,14.40
2018-04-13T17:46:21.937Z,14.40
2018-04-13T17:48:49.425Z,14.40
2018-04-13T17:51:17.700Z,14.30
2018-04-13T17:53:45.936Z,14.20
2018-04-13T17:56:13.413Z,14.20
2018-04-13T17:58:40.901Z,14.10
2018-04-13T18:01:08.473Z,14.00
2018-04-13T18:03:35.964Z,14.00
2018-04-13T18:06:03.433Z,14.00
2018-04-13T18:08:30.942Z,13.90
2018-04-13T18:10:58.424Z,13.90
2018-04-13T18:13:25.935Z,13.90
2018-04-13T18:15:54.230Z,13.80
2018-04-13T18:18:21.720Z,13.80
2018-04-13T18:20:49.244Z,13.80
2018-04-13T18:23:16.716Z,13.70
2018-04-13T18:25:44.216Z,13.70
2018-04-13T18:28:11.700Z,13.60
2018-04-13T18:30:39.209Z,13.60
2018-04-13T18:33:06.681Z,13.50
2018-04-13T18:35:34.181Z,13.60
2018-04-13T18:38:01.661Z,13.50
2018-04-13T18:40:29.133Z,13.50
2018-04-13T18:42:56.628Z,13.40
2018-04-13T18:45:24.869Z,13.40
2018-04-13T18:47:52.356Z,13.40
2018-04-13T18:50:20.597Z,13.30
2018-04-13T18:52:48.068Z,13.30
2018-04-13T18:55:15.556Z,13.30
2018-04-13T18:57:43.028Z,13.20
2018-04-13T19:00:10.517Z,13.20
2018-04-13T19:02:37.989Z,13.10
2018-04-13T19:05:05.495Z,13.10
2018-04-13T19:07:33.008Z,13.10
2018-04-13T19:10:00.476Z,13.00
2018-04-13T19:12:28.729Z,12.90
2018-04-13T19:14:57.704Z,12.90
2018-04-13T19:17:25.194Z,12.90
2018-04-13T19:19:53.440Z,12.90
2018-04-13T19:22:20.939Z,12.90
2018-04-13T19:24:48.440Z,12.90
2018-04-13T19:27:15.927Z,12.80
2018-04-13T19:29:43.412Z,12.80
2018-04-13T19:32:10.886Z,12.70
2018-04-13T19:34:38.372Z,12.60
2018-04-13T19:37:05.844Z,12.50
2018-04-13T19:39:33.349Z,12.60
2018-04-13T19:42:00.817Z,12.50
2018-04-13T19:44:28.296Z,12.50
2018-04-13T19:46:55.781Z,12.50
2018-04-13T19:49:23.273Z,12.50
2018-04-13T19:51:50.752Z,12.50
2018-04-13T19:54:18.225Z,12.40
2018-04-13T19:56:45.804Z,12.50
2018-04-13T19:59:13.273Z,12.40
2018-04-13T20:01:41.509Z,12.30
2018-04-13T20:04:09.016Z,12.30
2018-04-13T20:06:36.485Z,12.20
2018-04-13T20:09:03.984Z,12.20
2018-04-13T20:11:31.466Z,12.10
2018-04-13T20:13:59.724Z,12.00
2018-04-13T20:16:27.204Z,12.00
2018-04-13T20:18:55.457Z,11.90
2018-04-13T20:21:23.696Z,11.90
2018-04-13T20:23:51.196Z,11.90
2018-04-13T20:26:18.668Z,11.80
2018-04-13T20:28:46.901Z,11.70
2018-04-13T20:31:14.385Z,11.70
2018-04-13T20:33:42.624Z,11.60
2018-04-13T20:36:10.104Z,11.50
2018-04-13T20:38:37.573Z,11.40
2018-04-13T20:41:05.825Z,11.30
2018-04-13T20:43:33.297Z,11.30
2018-04-13T20:46:00.781Z,11.30
2018-04-13T20:48:28.252Z,11.10
2018-04-13T20:50:55.772Z,10.90
2018-04-13T20:53:24.004Z,10.70
2018-04-13T20:55:51.504Z,10.60
2018-04-13T20:58:19.812Z,10.60
2018-04-13T21:00:47.414Z,10.50
2018-04-13T21:03:15.508Z,10.50
2018-04-13T21:05:43.102Z,10.40
2018-04-13T21:08:10.572Z,10.30
2018-04-13T21:10:38.835Z,10.30
2018-04-13T21:13:06.329Z,10.30
2018-04-13T21:15:33.797Z,10.30
2018-04-13T21:18:01.309Z,10.40
2018-04-13T21:20:29.618Z,10.40
2018-04-13T21:22:57.905Z,10.40
2018-04-13T21:25:25.372Z,10.40
2018-04-13T21:27:53.762Z,10.50
2018-04-13T21:30:21.999Z,10.60
2018-04-13T21:32:49.485Z,10.60
2018-04-13T21:35:18.361Z,10.70
2018-04-13T21:37:45.849Z,10.70
2018-04-13T21:40:13.325Z,10.70
2018-04-13T21:42:40.808Z,10.80
2018-04-13T21:45:08.332Z,10.80
2018-04-13T21:47:35.822Z,10.70
2018-04-13T21:50:03.289Z,10.80
2018-04-13T21:52:31.538Z,10.80
2018-04-13T21:54:59.027Z,10.80
2018-04-13T21:57:26.497Z,10.80
2018-04-13T21:59:54.749Z,10.70
2018-04-13T22:02:22.217Z,10.70
2018-04-13T22:04:49.706Z,10.70
2018-04-13T22:07:17.176Z,10.60
2018-04-13T22:09:44.664Z,10.60
2018-04-13T22:12:24.166Z,10.60
2018-04-13T22:14:55.396Z,10.70
2018-04-13T22:17:22.868Z,10.70
2018-04-13T22:19:50.362Z,10.70
2018-04-13T22:22:17.833Z,10.70
2018-04-13T22:24:45.326Z,10.70
2018-04-13T22:27:12.892Z,10.60
2018-04-13T22:29:40.389Z,10.60
2018-04-13T22:32:07.886Z,10.50
2018-04-13T22:34:36.149Z,10.40
2018-04-13T22:37:04.413Z,10.40
2018-04-13T22:39:32.659Z,10.40
2018-04-13T22:42:00.188Z,10.40
2018-04-13T22:44:27.665Z,10.40
2018-04-13T22:46:55.160Z,10.50
2018-04-13T22:49:22.630Z,10.50
2018-04-13T22:51:50.142Z,10.50
2018-04-13T22:54:17.617Z,10.50
2018-04-13T22:56:45.085Z,10.50
2018-04-13T22:59:13.348Z,10.60
2018-04-13T23:01:40.812Z,10.60
2018-04-13T23:04:09.066Z,10.60
2018-04-13T23:06:36.537Z,10.60
2018-04-13T23:09:05.818Z,10.60
2018-04-13T23:11:33.284Z,10.60
2018-04-13T23:14:00.773Z,10.60
2018-04-13T23:16:28.248Z,10.60
2018-04-13T23:18:55.752Z,10.60
2018-04-13T23:21:23.220Z,10.60
2018-04-13T23:23:51.465Z,10.60
2018-04-13T23:26:18.948Z,10.60
2018-04-13T23:28:46.417Z,10.60
2018-04-13T23:31:14.665Z,10.50
2018-04-13T23:33:42.137Z,10.50
2018-04-13T23:36:10.394Z,10.50
2018-04-13T23:38:37.864Z,10.50
2018-04-13T23:41:05.344Z,10.40
2018-04-13T23:43:32.816Z,10.40
2018-04-13T23:46:00.304Z,10.40
2018-04-13T23:48:27.773Z,10.40
2018-04-13T23:50:55.481Z,10.20
2018-04-13T23:53:22.952Z,10.20
2018-04-13T23:55:50.429Z,10.20
2018-04-13T23:58:17.921Z,10.10
